Tiempo atmosférico en la estación meteorológica de Sopeira, Huesca (760 m.)



Fecha
DESCASC
Temp. máxima en grados centígrados (hora)
DESCASC
Temp. mínima en grados centígrados (hora)
DESCASC
Temp. media en grados centígrados
DESCASC
Racha de viento máxima en m/sg (hora)
DESCASC
Velocidad máxima media en intervalos de 10 minutos(hora)
DESCASC
Precipitaciones diarias en mm
DESCASC
Precipitaciones de 00:00 a 06:00 en mm
DESCASC
Precipitaciones de 06:00 a 12:00 en mm
DESCASC
Precipitaciones de 12:00 a 18:00 en mm
DESCASC
Precipitaciones de 18:00 a 24:00 en mm
DESCASC
05-12-2019 10.8 (14:20) 4.1 (23:59) 7.5 11.39 (23:50) 8.61 (23:10) 0 0 0 0 0
04-12-2019 7.7 (20:00) 1 (06:30) 4.3 15.83 (08:30) 12.22 (08:20) 0 0 0 0 0
03-12-2019 10.3 (14:50) -0.5 (-00:0) 4.9 13.33 (06:10) 10 (06:00) 0 0 0 0 0
02-12-2019 11.8 (15:40) 1.2 (00:00) 6.5 13.61 (03:50) 10 (04:10) 0 0 0 0 0
01-12-2019 11.8 (14:30) 3.2 (00:00) 7.5 11.39 (23:50) 8.33 (23:50) 1.4 1.2 0.2 0 0
30-11-2019 10.3 (15:40) 2.9 (00:00) 6.6 13.06 (02:30) 9.17 (07:00) 2.4 0 0 0 2.4
29-11-2019 15.4 (14:10) 5.4 (00:00) 10.4 10.83 (23:30) 8.33 (22:40) 0.2 0.2 0 0 0
28-11-2019 13.4 (14:50) 5.2 (00:00) 9.3 8.89 (10:50) 6.11 (10:50) 3.4 0.2 0 0 3.2
27-11-2019 13.1 (15:00) 7.4 (00:00) 10.3 6.39 (17:40) 3.61 (15:20) 14.2 13.6 0.2 0 0.4
26-11-2019 13.2 (15:50) 2.3 (00:00) 7.7 14.44 (05:20) 9.17 (05:30) 1.2 0 0 0 1.2
25-11-2019 13.6 (15:00) 1.5 (00:00) 7.6 11.94 (05:20) 9.17 (08:00) 0 0 0 0 0
24-11-2019 11 (14:20) 0 (00:00) 5.5 10.83 (23:50) 8.33 (22:50) 0 0 0 0 0
23-11-2019 9.1 (00:50) 3.4 (00:00) 6.3 7.78 (00:50) 4.17 (00:50) 5 4.6 0.4 0 0
22-11-2019 8.4 (23:50) 3.1 (00:00) 5.7 12.5 (05:00) 8.61 (05:00) 18.6 0 0 4.4 14.2
21-11-2019 11.1 (15:30) 1 (00:00) 6.1 11.11 (02:20) 8.33 (02:20) 0 0 0 0 0
20-11-2019 9.2 (13:30) -1.8 (-00:0) 3.7 12.78 (08:50) 9.44 (07:20) 0 0 0 0 0
19-11-2019 10.9 (14:20) -1.8 (-00:0) 4.5 11.94 (08:20) 8.61 (00:10) 0 0 0 0 0
18-11-2019 11.2 (14:50) 1.4 (00:00) 6.3 10.28 (07:50) 7.5 (07:50) 0 0 0 0 0
17-11-2019 8.4 (15:30) -1.1 (-00:0) 3.6 10.28 (07:00) 6.11 (01:30) 0.4 0 0 0 0.4
16-11-2019 6.5 (13:40) -1.8 (-00:0) 2.4 12.5 (09:50) 8.33 (09:40) 0 0 0 0 0
15-11-2019 4.4 (11:50) -0.8 (-00:0) 1.8 10.28 (06:40) 6.94 (06:40) 0.6 0 0 0.4 0.2
14-11-2019 5.5 (16:30) 1 (00:00) 3.3 10.83 (11:10) 6.94 (00:50) 16.4 1.8 13.4 1.2 0
13-11-2019 13.3 (15:20) 2.2 (00:00) 7.8 11.39 (08:10) 8.06 (04:50) 0 0 0 0 0
12-11-2019 13.7 (13:30) 1.8 (00:00) 7.7 9.72 (06:10) 6.94 (06:10) 0 0 0 0 0
11-11-2019 11.5 (14:40) 1.7 (05:10) 6.6 10 (09:00) 6.39 (06:30) 0 0 0 0 0
10-11-2019 11.4 (13:40) 1.3 (00:00) 6.3 10.28 (16:10) 5 (21:40) 0 0 0 0 0
09-11-2019 11 (15:00) -0.3 (00:00) 5.3 6.11 (23:00) 3.89 (23:00) 0 0 0 0 0
08-11-2019 8.2 (13:40) 1.2 (00:00) 4.7 8.61 (22:50) 4.72 (14:40) 0 0 0 0 0
07-11-2019 8.8 (17:10) 3.7 (00:00) 6.3 9.17 (05:50) 6.94 (06:40) 1.2 0 0.4 0.8 0
06-11-2019 13.4 (16:10) 2.6 (00:00) 8 9.17 (03:00) 6.67 (03:10) 0 0 0 0 0

Gráficas

Temp. máximas Temp. mínimas Temp. medias Precipitaciones Rachas de viento máximas Velocidades máximas media en intervalos de 10 minutos

Datos horarios

Fecha y hora oficial Temperatura (ºC) Velocidad del viento (km/h) Dirección del viento Racha (km/h) Dirección de racha Precipitación (mm) Presión (hPa) Tendencia (hPa) Humedad (%)
2019-12-05 23:00:00 4.8 29 Noroeste 37 Noroeste 0 -- -- 86
2019-12-05 22:00:00 5.6 27 Noroeste 36 Noroeste 0 -- -- 85
2019-12-05 21:00:00 6.2 16 Noroeste 29 Noroeste 0 -- -- 85
2019-12-05 20:00:00 7.1 15 Noroeste 22 Noroeste 0 -- -- 84
2019-12-05 19:00:00 7.7 2 Noroeste 8 Noroeste 0 -- -- 84
2019-12-05 18:00:00 8.4 0 Calma 7 Sudoeste 0 -- -- 82
2019-12-05 17:00:00 9.5 6 Sudoeste 8 Sudoeste 0 -- -- 78
2019-12-05 16:00:00 10 2 Este 15 Sudoeste 0 -- -- 76
2019-12-05 15:00:00 10.5 12 Sur 19 Sudoeste 0 -- -- 71
2019-12-05 14:00:00 10.3 5 Sur 8 Sur 0 -- -- 71
2019-12-05 13:00:00 9 5 Sur 9 Sur 0 -- -- 76
2019-12-05 12:00:00 7.9 3 Noroeste 19 Noroeste 0 -- -- 78
2019-12-05 11:00:00 7 5 Norte 20 Noroeste 0 -- -- 81
2019-12-05 10:00:00 6.6 6 Norte 21 Noroeste 0 -- -- 83
2019-12-05 09:00:00 6.3 13 Noroeste 21 Noroeste 0 -- -- 83
2019-12-05 08:00:00 6.2 12 Noroeste 22 Noroeste 0 -- -- 83
2019-12-05 07:00:00 6.2 15 Noroeste 26 Noroeste 0 -- -- 83
2019-12-05 06:00:00 6.3 11 Noroeste 21 Noroeste 0 -- -- 82
2019-12-05 05:00:00 6.3 5 Norte 25 Noroeste 0 -- -- 81
2019-12-05 04:00:00 6.4 16 Noroeste 30 Noroeste 0 -- -- 81
2019-12-05 03:00:00 6.6 12 Noroeste 32 Noroeste 0 -- -- 79
2019-12-05 02:00:00 6.6 18 Noroeste 34 Noroeste 0 -- -- 78
2019-12-05 01:00:00 6.7 15 Noroeste 26 Noroeste 0 -- -- 79
2019-12-05 00:00:00 6.6 6 Norte 25 Noroeste 0 -- -- 78
2019-12-04 23:00:00 6.8 9 Norte 27 Noroeste 0 -- -- 78
2019-12-04 22:00:00 6.6 19 Noroeste 28 Noroeste 0 -- -- 79
2019-12-04 21:00:00 7.1 15 Noroeste 36 Noroeste 0 -- -- 75
2019-12-04 20:00:00 7.7 19 Noroeste 35 Noroeste 0 -- -- 71
2019-12-04 19:00:00 7 25 Noroeste 36 Noroeste 0 -- -- 74
2019-12-04 18:00:00 7 18 Noroeste 30 Noroeste 0 -- -- 73
2019-12-04 17:00:00 7.5 16 Noroeste 32 Noroeste 0 -- -- 68
2019-12-04 16:00:00 7.6 20 Noroeste 34 Noroeste 0 -- -- 65
2019-12-04 15:00:00 6.6 26 Noroeste 38 Noroeste 0 -- -- 69
2019-12-04 14:00:00 6.3 27 Noroeste 45 Noroeste 0 -- -- 68
2019-12-04 13:00:00 5.3 33 Noroeste 45 Noroeste 0 -- -- 70
2019-12-04 12:00:00 5.2 28 Noroeste 48 Noroeste 0 -- -- 69
2019-12-04 11:00:00 4 34 Noroeste 49 Noroeste 0 -- -- 73
2019-12-04 10:00:00 3.5 39 Noroeste 53 Noroeste 0 -- -- 72
2019-12-04 09:00:00 3.5 34 Norte 57 Noroeste 0 -- -- 71
2019-12-04 08:00:00 1 39 Noroeste 56 Noroeste 0 -- -- 83
2019-12-04 07:00:00 1 35 Noroeste 49 Noroeste 0 -- -- 84
2019-12-04 06:00:00 1.2 28 Noroeste 43 Noroeste 0 -- -- 84
2019-12-04 05:00:00 1.7 32 Noroeste 43 Noroeste 0 -- -- 81
2019-12-04 04:00:00 1.6 24 Noroeste 39 Noroeste 0 -- -- 84
2019-12-04 03:00:00 2.3 24 Noroeste 35 Noroeste 0 -- -- 80
2019-12-04 02:00:00 2.6 19 Noroeste 38 Noroeste 0 -- -- 78
2019-12-04 01:00:00 2.9 27 Noroeste 45 Noroeste 0 -- -- 77
2019-12-04 00:00:00 2.5 28 Noroeste 39 Noroeste 0 -- -- 79
2019-12-03 23:00:00 2.4 24 Noroeste 44 Noroeste 0 -- -- 82
2019-12-03 22:00:00 2.9 21 Noroeste 38 Noroeste 0 -- -- 78
2019-12-03 21:00:00 3.8 25 Noroeste 37 Noroeste 0 -- -- 73
2019-12-03 20:00:00 4.1 25 Noroeste 33 Noroeste 0 -- -- 75
2019-12-03 19:00:00 5.3 13 Noroeste 19 Noroeste 0 -- -- 71
2019-12-03 18:00:00 5.8 6 Este 11 Este 0 -- -- 68
2019-12-03 17:00:00 7.9 5 Sudeste 12 Sur 0 -- -- 59
2019-12-03 16:00:00 9.6 9 Sur 13 Sudoeste 0 -- -- 49
2019-12-03 15:00:00 10.2 3 Sudeste 11 Este 0 -- -- 49
2019-12-03 14:00:00 9 4 Sudeste 9 Nordeste 0 -- -- 53
2019-12-03 13:00:00 6.9 5 Este 16 Noroeste 0 -- -- 60
2019-12-03 12:00:00 4 18 Noroeste 34 Noroeste 0 -- -- 64
2019-12-03 11:00:00 2.2 25 Noroeste 46 Noroeste 0 -- -- 70
2019-12-03 10:00:00 0.4 24 Noroeste 43 Noroeste 0 -- -- 80
2019-12-03 09:00:00 -0.3 27 Noroeste 40 Noroeste 0 -- -- 84
2019-12-03 08:00:00 -0.3 27 Noroeste 40 Noroeste 0 -- -- 86
2019-12-03 07:00:00 0 28 Noroeste 48 Noroeste 0 -- -- 84
2019-12-03 06:00:00 0 36 Noroeste 48 Noroeste 0 -- -- 86
2019-12-03 05:00:00 0.4 28 Noroeste 41 Noroeste 0 -- -- 84
2019-12-03 04:00:00 0.6 33 Noroeste 44 Noroeste 0 -- -- 85
2019-12-03 03:00:00 0.9 29 Noroeste 40 Noroeste 0 -- -- 85
2019-12-03 02:00:00 1.3 28 Noroeste 44 Noroeste 0 -- -- 83
2019-12-03 01:00:00 2 32 Noroeste 45 Noroeste 0 -- -- 80
2019-12-03 00:00:00 2.2 30 Noroeste 41 Noroeste 0 -- -- 81
2019-12-02 23:00:00 2.9 28 Noroeste 39 Noroeste 0 -- -- 78
2019-12-02 22:00:00 3.4 26 Noroeste 39 Noroeste 0 -- -- 78
2019-12-02 21:00:00 4 30 Noroeste 39 Noroeste 0 -- -- 78
2019-12-02 20:00:00 5 18 Noroeste 32 Noroeste 0 -- -- 78
2019-12-02 19:00:00 6 17 Noroeste 26 Noroeste 0 -- -- 75
2019-12-02 18:00:00 7.4 12 Noroeste 18 Oeste 0 -- -- 68
2019-12-02 17:00:00 9.7 3 Sudeste 6 Sudeste 0 -- -- 56
2019-12-02 16:00:00 11.5 2 Sur 6 Sudeste 0 -- -- 51
2019-12-02 15:00:00 11.4 3 Sudeste 6 Este 0 -- -- 50
2019-12-02 14:00:00 10.5 4 Sudeste 13 Sudoeste 0 -- -- 53
2019-12-02 13:00:00 10.1 4 Sudeste 14 Noroeste 0 -- -- 57
2019-12-02 12:00:00 6.1 10 Noroeste 26 Noroeste 0 -- -- 69
2019-12-02 11:00:00 3.9 17 Noroeste 34 Noroeste 0 -- -- 79
2019-12-02 10:00:00 1.9 15 Noroeste 38 Norte 0 -- -- 85
2019-12-02 09:00:00 1.3 22 Noroeste 35 Noroeste 0 -- -- 88
2019-12-02 08:00:00 1.4 15 Noroeste 33 Noroeste 0 -- -- 88
2019-12-02 07:00:00 1.5 18 Noroeste 36 Noroeste 0 -- -- 87
2019-12-02 06:00:00 1.5 25 Noroeste 42 Noroeste 0 -- -- 88
2019-12-02 05:00:00 1.6 35 Noroeste 47 Noroeste 0 -- -- 88
2019-12-02 04:00:00 1.6 35 Noroeste 49 Noroeste 0 -- -- 90
2019-12-02 03:00:00 1.7 32 Noroeste 46 Noroeste 0 -- -- 91
2019-12-02 02:00:00 2.1 35 Noroeste 44 Noroeste 0 -- -- 90
2019-12-02 01:00:00 2.6 28 Noroeste 40 Noroeste 0 -- -- 90
2019-12-02 00:00:00 3.2 30 Noroeste 41 Noroeste 0 -- -- 89
2019-12-01 23:00:00 3.8 27 Noroeste 36 Noroeste 0 -- -- 88
2019-12-01 22:00:00 4.3 23 Noroeste 32 Noroeste 0 -- -- 89
2019-12-01 21:00:00 4.9 22 Noroeste 32 Noroeste 0 -- -- 88
2019-12-01 20:00:00 5.5 18 Noroeste 26 Noroeste 0 -- -- 86
2019-12-01 19:00:00 6.4 17 Noroeste 24 Noroeste 0 -- -- 83
2019-12-01 18:00:00 7.7 6 Noroeste 13 Oeste 0 -- -- 79
2019-12-01 17:00:00 9.3 2 Sur 14 Sur 0 -- -- 70
2019-12-01 16:00:00 10.7 9 Sur 14 Sudoeste 0 -- -- 62
2019-12-01 15:00:00 11.6 8 Sur 15 Sur 0 -- -- 62
2019-12-01 14:00:00 11.2 6 Sur 17 Este 0 -- -- 68
2019-12-01 13:00:00 8.1 3 Nordeste 19 Noroeste 0 -- -- 82
2019-12-01 12:00:00 6.4 12 Noroeste 25 Noroeste 0 -- -- 85
2019-12-01 11:00:00 5.3 13 Noroeste 29 Noroeste 0 -- -- 88
2019-12-01 10:00:00 4.4 18 Noroeste 33 Noroeste 0 -- -- 91
2019-12-01 09:00:00 4.3 18 Noroeste 28 Noroeste 0.2 -- -- 92
2019-12-01 08:00:00 4.4 19 Noroeste 31 Noroeste 0 -- -- 92
2019-12-01 07:00:00 4.8 16 Noroeste 26 Noroeste 0 -- -- 91
2019-12-01 06:00:00 5.4 12 Noroeste 19 Noroeste 0 -- -- 91
2019-12-01 05:00:00 6.4 6 Sudoeste 14 Noroeste 0 -- -- 88
2019-12-01 04:00:00 6.9 5 Sudeste 22 Oeste 0 -- -- 85
2019-12-01 03:00:00 7.7 10 Noroeste 26 Noroeste 0.4 -- -- 81
2019-12-01 02:00:00 8.4 4 Sur 17 Oeste 0.2 -- -- 85
2019-12-01 01:00:00 8.6 4 Sur 15 Este 0.6 -- -- 93
2019-12-01 00:00:00 8.3 0 Calma 14 Sudoeste 0 -- -- 93
2019-11-30 23:00:00 8 5 Sur 12 Sudeste 1.8 -- -- 92
2019-11-30 22:00:00 8.4 3 Sudeste 15 Sudoeste 0.6 -- -- 87
2019-11-30 21:00:00 9.4 12 Sudoeste 20 Noroeste 0 -- -- 79
2019-11-30 20:00:00 10.3 9 Noroeste 18 Noroeste 0 -- -- 77
2019-11-30 19:00:00 10.2 5 Noroeste 20 Noroeste 0 -- -- 75
2019-11-30 18:00:00 10 0 Calma 13 Noroeste 0 -- -- 74
2019-11-30 17:00:00 10.1 0 Calma 6 Noroeste 0 -- -- 72
2019-11-30 16:00:00 10.2 0 Calma 5 Sudoeste 0 -- -- 70
2019-11-30 15:00:00 9.9 3 Sur 13 Sur 0 -- -- 71
2019-11-30 14:00:00 10 8 Sudoeste 13 Noroeste 0 -- -- 69
2019-11-30 13:00:00 9 10 Noroeste 28 Noroeste 0 -- -- 68
2019-11-30 12:00:00 7.4 25 Noroeste 36 Noroeste 0 -- -- 72
2019-11-30 11:00:00 5.5 27 Noroeste 41 Noroeste 0 -- -- 81
2019-11-30 10:00:00 4 27 Noroeste 41 Noroeste 0 -- -- 86
2019-11-30 09:00:00 3.1 25 Noroeste 41 Noroeste 0 -- -- 89
2019-11-30 08:00:00 3.1 28 Noroeste 41 Noroeste 0 -- -- 88
2019-11-30 07:00:00 3.1 33 Noroeste 44 Noroeste 0 -- -- 90
2019-11-30 06:00:00 2.9 26 Noroeste 41 Noroeste 0 -- -- 92
2019-11-30 05:00:00 3.3 32 Noroeste 46 Noroeste 0 -- -- 91
2019-11-30 04:00:00 3.7 31 Noroeste 41 Noroeste 0 -- -- 90
2019-11-30 03:00:00 4.2 29 Noroeste 47 Noroeste 0 -- -- 89
2019-11-30 02:00:00 4.7 30 Noroeste 42 Noroeste 0 -- -- 88
2019-11-30 01:00:00 5.1 29 Noroeste 41 Noroeste 0 -- -- 86
2019-11-30 00:00:00 5.5 27 Noroeste 39 Noroeste 0 -- -- 87
2019-11-29 23:00:00 6 27 Noroeste 37 Noroeste 0 -- -- 86
2019-11-29 22:00:00 6.6 29 Noroeste 39 Noroeste 0 -- -- 87
2019-11-29 21:00:00 7.6 26 Noroeste 35 Noroeste 0 -- -- 84
2019-11-29 20:00:00 8.2 20 Noroeste 31 Noroeste 0 -- -- 84
2019-11-29 19:00:00 9.3 17 Noroeste 26 Noroeste 0 -- -- 79
2019-11-29 18:00:00 11 9 Noroeste 14 Noroeste 0 -- -- 73
2019-11-29 17:00:00 13 4 Sudeste 14 Sudoeste 0 -- -- 63
2019-11-29 16:00:00 15.1 6 Sur 11 Sudeste 0 -- -- 59
2019-11-29 15:00:00 15.2 5 Sudeste 11 Sur 0 -- -- 66
2019-11-29 14:00:00 14.8 7 Sudeste 12 Sur 0 -- -- 65
2019-11-29 13:00:00 11.6 7 Noroeste 15 Noroeste 0 -- -- 75
2019-11-29 12:00:00 10.6 10 Noroeste 26 Noroeste 0 -- -- 79
2019-11-29 11:00:00 9 19 Noroeste 29 Noroeste 0 -- -- 84
2019-11-29 10:00:00 7.9 17 Noroeste 31 Noroeste 0 -- -- 86
2019-11-29 09:00:00 7.9 15 Noroeste 29 Noroeste 0 -- -- 86
2019-11-29 08:00:00 8.3 19 Noroeste 26 Noroeste 0 -- -- 84
2019-11-29 07:00:00 8.4 14 Noroeste 26 Noroeste 0 -- -- 86
2019-11-29 06:00:00 8.6 8 Noroeste 19 Noroeste 0 -- -- 90
2019-11-29 05:00:00 8.6 12 Noroeste 17 Noroeste 0 -- -- 94
2019-11-29 04:00:00 8.7 0 Calma 5 Sudoeste 0 -- -- 94
2019-11-29 03:00:00 9 0 Calma 14 Noroeste 0 -- -- 93
2019-11-29 02:00:00 9 3 Noroeste 8 Noroeste 0 -- -- 93
2019-11-29 01:00:00 9 0 Calma 11 Oeste 0.2 -- -- 92
2019-11-29 00:00:00 9.2 0 Calma 5 Sudoeste 0.2 -- -- 91
2019-11-28 23:00:00 9.5 0 Calma 7 Sudoeste 0.6 -- -- 90
2019-11-28 22:00:00 9.8 0 Calma 8 Sudoeste 0.4 -- -- 89
2019-11-28 21:00:00 9.8 3 Sur 23 Este 0.4 -- -- 89
2019-11-28 20:00:00 10.1 3 Sudeste 14 Sur 1.6 -- -- 87
2019-11-28 19:00:00 11 4 Sur 10 Sur 0 -- -- 79
2019-11-28 18:00:00 11 5 Sur 9 Sur 0 -- -- 80
2019-11-28 17:00:00 11.7 4 Sudeste 18 Sur 0 -- -- 76
2019-11-28 16:00:00 12.5 10 Sur 23 Sur 0 -- -- 73
2019-11-28 15:00:00 13.3 15 Sur 23 Sur 0 -- -- 67
2019-11-28 14:00:00 11.2 3 Sudeste 13 Oeste 0 -- -- 75
2019-11-28 13:00:00 9.5 7 Noroeste 18 Noroeste 0 -- -- 78
2019-11-28 12:00:00 7.9 17 Noroeste 26 Noroeste 0 -- -- 84
2019-11-28 11:00:00 6.4 19 Noroeste 32 Noroeste 0 -- -- 89
2019-11-28 10:00:00 5.4 18 Noroeste 28 Noroeste 0 -- -- 91
2019-11-28 09:00:00 5.3 18 Noroeste 28 Noroeste 0 -- -- 91
2019-11-28 08:00:00 5.8 13 Noroeste 26 Noroeste 0 -- -- 91
2019-11-28 07:00:00 6.3 14 Noroeste 23 Noroeste 0 -- -- 89
2019-11-28 06:00:00 6.5 12 Noroeste 24 Noroeste 0 -- -- 90
2019-11-28 05:00:00 6.7 10 Noroeste 22 Noroeste 0 -- -- 90
2019-11-28 04:00:00 6.9 10 Noroeste 18 Noroeste 0 -- -- 92
2019-11-28 03:00:00 7.1 2 Sudoeste 12 Noroeste 0 -- -- 92
2019-11-28 02:00:00 7.2 0 Calma 10 Noroeste 0 -- -- 91
2019-11-28 01:00:00 7.6 2 Sudeste 5 Este 0.2 -- -- 90
2019-11-28 00:00:00 7.8 2 Sudoeste 4 Oeste 0.4 -- -- 88
2019-11-27 23:00:00 8.5 3 Sur 13 Noroeste 0 -- -- 82
2019-11-27 22:00:00 8.9 4 Noroeste 11 Noroeste 0 -- -- 77
2019-11-27 21:00:00 9.2 8 Noroeste 15 Noroeste 0 -- -- 73
2019-11-27 20:00:00 9.3 10 Noroeste 14 Noroeste 0 -- -- 75
2019-11-27 19:00:00 10 4 Sudoeste 12 Sur 0 -- -- 68
2019-11-27 18:00:00 10.9 7 Sur 23 Oeste 0 -- -- 62
2019-11-27 17:00:00 11.2 7 Sur 22 Sur 0 -- -- 63
2019-11-27 16:00:00 12.1 6 Sur 21 Sudoeste 0 -- -- 60
2019-11-27 15:00:00 13.1 11 Sur 22 Sudoeste 0 -- -- 60
2019-11-27 14:00:00 12.2 8 Sur 18 Sudoeste 0 -- -- 61
2019-11-27 06:00:00 -- -- -- -- -- -- -- -- --
2019-11-27 05:00:00 8.9 4 Sur 10 Sudoeste 0.2 -- -- 96
2019-11-27 04:00:00 8.8 4 Sudeste 12 Sur 3.8 -- -- 96
2019-11-27 03:00:00 9 7 Sudoeste 14 Sur 4 -- -- 96
2019-11-27 02:00:00 8.4 0 Calma 14 Sur 3.2 -- -- 94
2019-11-27 01:00:00 8.5 4 Sur 12 Sudoeste 2.2 -- -- 93
2019-11-27 00:00:00 8.7 4 Oeste 18 Noroeste 0 -- -- 91
2019-11-26 23:00:00 8.7 6 Norte 18 Noroeste 0 -- -- 90
2019-11-26 22:00:00 8.8 9 Norte 25 Noroeste 0.4 -- -- 89
2019-11-26 21:00:00 9.3 4 Noroeste 17 Noroeste 0.8 -- -- 84
2019-11-26 20:00:00 9.2 12 Noroeste 21 Noroeste 0 -- -- 82
2019-11-26 19:00:00 9.7 7 Noroeste 13 Noroeste 0 -- -- 80
2019-11-26 18:00:00 10.4 2 Sudeste 6 Este 0 -- -- 75
2019-11-26 17:00:00 12.1 3 Este 4 Este 0 -- -- 69
2019-11-26 16:00:00 13.1 0 Calma 9 Sur 0 -- -- 63
2019-11-26 15:00:00 12.8 7 Sur 10 Sudoeste 0 -- -- 64
2019-11-26 14:00:00 11.9 4 Sudeste 12 Este 0 -- -- 68
2019-11-26 13:00:00 11.1 4 Sudeste 22 Noroeste 0 -- -- 66
2019-11-26 12:00:00 7.8 19 Noroeste 30 Noroeste 0 -- -- 72
2019-11-26 11:00:00 5.5 14 Noroeste 40 Noroeste 0 -- -- 80
2019-11-26 10:00:00 3.2 29 Noroeste 50 Noroeste 0 -- -- 88
2019-11-26 09:00:00 2.7 30 Noroeste 45 Noroeste 0 -- -- 90
2019-11-26 08:00:00 2.5 30 Noroeste 46 Noroeste 0 -- -- 90
2019-11-26 07:00:00 2.5 28 Noroeste 45 Noroeste 0 -- -- 92
2019-11-26 06:00:00 2.9 30 Noroeste 52 Noroeste 0 -- -- 90
2019-11-26 05:00:00 2.9 31 Noroeste 43 Noroeste 0 -- -- 91
2019-11-26 04:00:00 3.1 28 Noroeste 43 Noroeste 0 -- -- 90
2019-11-26 03:00:00 3.5 27 Noroeste 41 Noroeste 0 -- -- 90
2019-11-26 02:00:00 4.1 26 Noroeste 40 Noroeste 0 -- -- 88
2019-11-26 01:00:00 4.3 28 Noroeste 42 Noroeste 0 -- -- 88
2019-11-26 00:00:00 4.8 25 Noroeste 39 Noroeste 0 -- -- 87
2019-11-25 23:00:00 5.3 26 Noroeste 37 Noroeste 0 -- -- 86
2019-11-25 22:00:00 6.1 24 Noroeste 37 Noroeste 0 -- -- 84
2019-11-25 21:00:00 6.7 23 Noroeste 32 Oeste 0 -- -- 84
2019-11-25 20:00:00 7.5 20 Noroeste 27 Noroeste 0 -- -- 82
2019-11-25 19:00:00 8.4 12 Noroeste 22 Noroeste 0 -- -- 79
2019-11-25 18:00:00 9.9 10 Noroeste 15 Noroeste 0 -- -- 71
2019-11-25 17:00:00 11.3 3 Este 11 Sur 0 -- -- 63
2019-11-25 16:00:00 12.7 8 Sur 12 Sudoeste 0 -- -- 55
2019-11-25 15:00:00 13.6 4 Sur 9 Este 0 -- -- 54
2019-11-25 14:00:00 12.5 4 Sudeste 9 Este 0 -- -- 55
2019-11-25 13:00:00 10.5 3 Sur 10 Noroeste 0 -- -- 59
2019-11-25 12:00:00 6.7 8 Noroeste 26 Noroeste 0 -- -- 67
2019-11-25 11:00:00 4.6 16 Noroeste 34 Noroeste 0 -- -- 75
2019-11-25 10:00:00 2.5 21 Noroeste 42 Noroeste 0 -- -- 82
2019-11-25 09:00:00 1.5 23 Noroeste 43 Noroeste 0 -- -- 86
2019-11-25 08:00:00 1.5 33 Noroeste 42 Noroeste 0 -- -- 87
2019-11-25 07:00:00 1.8 24 Noroeste 39 Noroeste 0 -- -- 87
2019-11-25 06:00:00 2.1 19 Noroeste 43 Noroeste 0 -- -- 87
2019-11-25 05:00:00 2.2 21 Noroeste 35 Noroeste 0 -- -- 89
2019-11-25 04:00:00 2.8 15 Noroeste 33 Noroeste 0 -- -- 86
2019-11-25 03:00:00 3.3 17 Noroeste 35 Noroeste 0 -- -- 85
2019-11-25 02:00:00 3.6 23 Noroeste 36 Noroeste 0 -- -- 84
2019-11-25 01:00:00 3.8 23 Noroeste 35 Noroeste 0 -- -- 84
2019-11-25 00:00:00 4.1 23 Noroeste 39 Noroeste 0 -- -- 83
2019-11-24 23:00:00 4.2 24 Noroeste 39 Noroeste 0 -- -- 83
2019-11-24 22:00:00 4.7 27 Noroeste 37 Noroeste 0 -- -- 81
2019-11-24 21:00:00 5.6 26 Noroeste 33 Noroeste 0 -- -- 80
2019-11-24 20:00:00 6.3 16 Noroeste 30 Noroeste 0 -- -- 77
2019-11-24 19:00:00 6.4 14 Noroeste 27 Noroeste 0 -- -- 79
2019-11-24 18:00:00 7.3 11 Noroeste 15 Noroeste 0 -- -- 75
2019-11-24 17:00:00 8.5 0 Calma 7 Este 0 -- -- 65
2019-11-24 16:00:00 10.1 3 Sudeste 12 Sur 0 -- -- 60
2019-11-24 15:00:00 10.1 10 Sur 16 Sudoeste 0 -- -- 61
2019-11-24 14:00:00 10.5 7 Sur 12 Sur 0 -- -- 59
2019-11-24 13:00:00 9.5 8 Este 12 Este 0 -- -- 64
2019-11-24 12:00:00 7.4 7 Sudeste 11 Sudeste 0 -- -- 75
2019-11-24 11:00:00 4.8 4 Sur 8 Sudeste 0 -- -- 95
2019-11-24 10:00:00 0.8 3 Sudoeste 7 Sudoeste 0 -- -- 96
2019-11-24 09:00:00 0.1 0 Calma 6 Sudeste 0 -- -- 95
2019-11-24 08:00:00 0.8 0 Calma 20 Noroeste 0 -- -- 95
2019-11-24 07:00:00 1.1 11 Noroeste 17 Noroeste 0 -- -- 94
2019-11-24 06:00:00 0.7 0 Calma 16 Noroeste 0 -- -- 93
2019-11-24 05:00:00 1.7 8 Noroeste 22 Noroeste 0 -- -- 92
2019-11-24 04:00:00 2.3 11 Noroeste 22 Noroeste 0 -- -- 91
2019-11-24 03:00:00 2 2 Oeste 21 Noroeste 0 -- -- 91
2019-11-24 02:00:00 1.9 6 Noroeste 13 Noroeste 0 -- -- 93
2019-11-24 01:00:00 2.4 4 Sudoeste 13 Noroeste 0 -- -- 90
2019-11-24 00:00:00 3.4 5 Noroeste 24 Noroeste 0 -- -- 89
2019-11-23 23:00:00 3.7 0 Calma 19 Noroeste 0 -- -- 90
2019-11-23 22:00:00 4.3 6 Sur 13 Sudoeste 0 -- -- 90
2019-11-23 21:00:00 5.2 7 Sudoeste 17 Noroeste 0 -- -- 88
2019-11-23 20:00:00 6 11 Noroeste 22 Noroeste 0 -- -- 87
2019-11-23 19:00:00 6.3 5 Sudoeste 9 Sudoeste 0 -- -- 85
2019-11-23 18:00:00 6.8 3 Sur 10 Nordeste 0 -- -- 83
2019-11-23 17:00:00 7.1 5 Sudeste 15 Este 0 -- -- 81
2019-11-23 16:00:00 7.5 5 Este 14 Nordeste 0 -- -- 84
2019-11-23 15:00:00 7.7 6 Nordeste 15 Este 0 -- -- 83
2019-11-23 14:00:00 8 11 Sur 18 Sur 0 -- -- 83
2019-11-23 13:00:00 7.7 9 Sur 18 Sur 0 -- -- 89
2019-11-23 12:00:00 7.8 4 Sudeste 9 Sur 0 -- -- 94
2019-11-23 11:00:00 7.5 0 Calma 10 Sudoeste 0 -- -- 95
2019-11-23 10:00:00 7.2 4 Sur 12 Sur 0 -- -- 96
2019-11-23 09:00:00 6.9 3 Sudoeste 7 Sur 0 -- -- 96
2019-11-23 08:00:00 6.7 0 Calma 6 Oeste 0.2 -- -- 95
2019-11-23 07:00:00 6.8 4 Sur 7 Sudoeste 0.2 -- -- 95
2019-11-23 06:00:00 6.8 0 Calma 5 Sudeste 0.2 -- -- 94
2019-11-23 05:00:00 6.9 0 Calma 5 Sudoeste 0 -- -- 93
2019-11-23 04:00:00 7.1 0 Calma 6 Sudoeste 0 -- -- 92
2019-11-23 03:00:00 7.4 2 Oeste 7 Sur 0 -- -- 90
2019-11-23 02:00:00 7.8 3 Sudoeste 11 Sudeste 0.6 -- -- 90
2019-11-23 01:00:00 8.7 9 Sudeste 28 Sudoeste 3.8 -- -- 92
2019-11-23 00:00:00 8.4 6 Sur 15 Sur 0 -- -- 94
2019-11-22 23:00:00 7.1 3 Noroeste 19 Noroeste 1.6 -- -- 93
2019-11-22 22:00:00 7.2 10 Noroeste 18 Noroeste 1.8 -- -- 91
2019-11-22 21:00:00 7.8 14 Noroeste 23 Noroeste 2.2 -- -- 88
2019-11-22 20:00:00 7.8 6 Sudeste 13 Sudoeste 4.4 -- -- 92
2019-11-22 19:00:00 7.9 4 Sudoeste 17 Sudoeste 4.2 -- -- 92
2019-11-22 18:00:00 7.5 4 Sudoeste 9 Sudoeste 2.2 -- -- 93
2019-11-22 17:00:00 7.1 2 Sur 5 Norte 0.8 -- -- 92
2019-11-22 16:00:00 7.1 6 Noroeste 15 Noroeste 0.8 -- -- 89
2019-11-22 15:00:00 6.9 3 Sudoeste 14 Noroeste 0.6 -- -- 87
2019-11-22 14:00:00 6.8 9 Noroeste 16 Noroeste 0 -- -- 82
2019-11-22 13:00:00 6.5 11 Noroeste 26 Noroeste 0 -- -- 79
2019-11-22 12:00:00 6.2 17 Noroeste 32 Noroeste 0 -- -- 75
2019-11-22 11:00:00 5.4 26 Noroeste 38 Noroeste 0 -- -- 77
2019-11-22 10:00:00 4.2 24 Noroeste 36 Noroeste 0 -- -- 83
2019-11-22 09:00:00 3.5 26 Noroeste 36 Noroeste 0 -- -- 85
2019-11-22 08:00:00 3.1 27 Noroeste 39 Noroeste 0 -- -- 86
2019-11-22 07:00:00 3.1 26 Noroeste 37 Noroeste 0 -- -- 87
2019-11-22 06:00:00 3.2 26 Noroeste 40 Noroeste 0 -- -- 86
2019-11-22 05:00:00 3.3 31 Noroeste 45 Noroeste 0 -- -- 86
2019-11-22 04:00:00 3.5 26 Noroeste 35 Noroeste 0 -- -- 86
2019-11-22 03:00:00 4 23 Noroeste 30 Noroeste 0 -- -- 84
2019-11-22 02:00:00 4.5 24 Noroeste 31 Noroeste 0 -- -- 81
2019-11-22 01:00:00 4.8 18 Noroeste 32 Noroeste 0 -- -- 80
2019-11-22 00:00:00 5.1 15 Noroeste 26 Noroeste 0 -- -- 78
2019-11-21 23:00:00 5.4 20 Noroeste 33 Oeste 0 -- -- 76
2019-11-21 22:00:00 5.7 17 Noroeste 31 Noroeste 0 -- -- 75
2019-11-21 21:00:00 6.1 15 Noroeste 22 Noroeste 0 -- -- 74
2019-11-21 20:00:00 6.1 5 Noroeste 15 Noroeste 0 -- -- 76
2019-11-21 19:00:00 6.3 0 Calma 5 Sudeste 0 -- -- 74
2019-11-21 18:00:00 7.5 0 Calma 12 Sur 0 -- -- 67
2019-11-21 17:00:00 8.6 8 Sur 17 Sudoeste 0 -- -- 63
2019-11-21 16:00:00 10.2 12 Sur 21 Sur 0 -- -- 56
2019-11-21 15:00:00 10 6 Nordeste 14 Sur 0 -- -- 59
2019-11-21 14:00:00 9.6 9 Sur 14 Sur 0 -- -- 58
2019-11-21 13:00:00 8 10 Sur 18 Sur 0 -- -- 63
2019-11-21 12:00:00 6.4 3 Sur 12 Noroeste 0 -- -- 65
2019-11-21 11:00:00 4.7 3 Norte 14 Noroeste 0 -- -- 73
2019-11-21 10:00:00 3.1 9 Noroeste 24 Noroeste 0 -- -- 76
2019-11-21 09:00:00 2.4 18 Noroeste 28 Noroeste 0 -- -- 77
2019-11-21 08:00:00 -- -- -- -- -- -- -- -- --
2019-11-21 07:00:00 -- -- -- -- -- -- -- -- --
2019-11-21 06:00:00 -- -- -- -- -- -- -- -- --
2019-11-21 05:00:00 -- -- -- -- -- -- -- -- --
2019-11-21 04:00:00 -- -- -- -- -- -- -- -- --
2019-11-21 03:00:00 -- -- -- -- -- -- -- -- --
2019-11-21 02:00:00 -- -- -- -- -- -- -- -- --
2019-11-21 01:00:00 -- -- -- -- -- -- -- -- --
2019-11-21 00:00:00 -- -- -- -- -- -- -- -- --
2019-11-20 23:00:00 -- -- -- -- -- -- -- -- --
2019-11-20 22:00:00 -- -- -- -- -- -- -- -- --
2019-11-20 21:00:00 3.1 22 Noroeste 30 Noroeste 0 -- -- 77
2019-11-20 20:00:00 4.1 16 Noroeste 23 Noroeste 0 -- -- 75
2019-11-20 19:00:00 4.8 2 Norte 9 Sudoeste 0 -- -- 71
2019-11-20 18:00:00 5.9 3 Este 9 Sudeste 0 -- -- 63
2019-11-20 17:00:00 7.7 0 Calma 5 Sudeste 0 -- -- 56
2019-11-20 16:00:00 8.4 4 Sudeste 13 Sudoeste 0 -- -- 54
2019-11-20 15:00:00 8.5 9 Sur 16 Sur 0 -- -- 51
2019-11-20 14:00:00 9.1 8 Sudoeste 14 Sudoeste 0 -- -- 46
2019-11-20 13:00:00 7.7 5 Sudeste 10 Norte 0 -- -- 51
2019-11-20 12:00:00 3.9 8 Noroeste 26 Noroeste 0 -- -- 60
2019-11-20 11:00:00 0.9 16 Noroeste 35 Noroeste 0 -- -- 73
2019-11-20 10:00:00 -0.8 22 Noroeste 38 Noroeste 0 -- -- 81
2019-11-20 09:00:00 -1.7 24 Noroeste 46 Noroeste 0 -- -- 82
2019-11-20 08:00:00 -1.8 27 Noroeste 45 Noroeste 0 -- -- 82
2019-11-20 07:00:00 -1.6 32 Noroeste 46 Noroeste 0 -- -- 82
2019-11-20 06:00:00 -1.5 29 Noroeste 44 Noroeste 0 -- -- 83
2019-11-20 05:00:00 -1.2 22 Noroeste 38 Noroeste 0 -- -- 84
2019-11-20 04:00:00 -1.1 19 Noroeste 33 Noroeste 0 -- -- 83
2019-11-20 03:00:00 -0.7 19 Noroeste 36 Noroeste 0 -- -- 81
2019-11-20 02:00:00 -0.4 24 Noroeste 40 Noroeste 0 -- -- 81
2019-11-20 01:00:00 0 24 Noroeste 36 Noroeste 0 -- -- 81
2019-11-20 00:00:00 0.5 23 Noroeste 41 Noroeste 0 -- -- 76
2019-11-19 23:00:00 0.8 30 Noroeste 39 Noroeste 0 -- -- 77
2019-11-19 22:00:00 1.7 21 Noroeste 31 Noroeste 0 -- -- 74
2019-11-19 21:00:00 2.4 23 Noroeste 36 Noroeste 0 -- -- 70
2019-11-19 20:00:00 3.4 17 Noroeste 26 Noroeste 0 -- -- 67
2019-11-19 19:00:00 4.6 5 Sur 15 Sur 0 -- -- 58
2019-11-19 18:00:00 6.6 9 Sudoeste 19 Sudoeste 0 -- -- 52
2019-11-19 17:00:00 8.5 7 Sur 15 Sur 0 -- -- 40
2019-11-19 16:00:00 10.4 5 Sur 13 Sudoeste 0 -- -- 38
2019-11-19 15:00:00 10.8 6 Sur 18 Sudoeste 0 -- -- 38
2019-11-19 14:00:00 10.4 6 Sudeste 12 Este 0 -- -- 38
2019-11-19 13:00:00 8.7 5 Sudeste 9 Este 0 -- -- 42
2019-11-19 12:00:00 6.4 6 Sudeste 9 Sudeste 0 -- -- 50
2019-11-19 11:00:00 3.1 4 Este 31 Noroeste 0 -- -- 60
2019-11-19 10:00:00 -0.6 17 Noroeste 41 Noroeste 0 -- -- 73
2019-11-19 09:00:00 -1.7 22 Noroeste 43 Noroeste 0 -- -- 76
2019-11-19 08:00:00 -1.8 24 Noroeste 41 Noroeste 0 -- -- 78
2019-11-19 07:00:00 -1.5 28 Noroeste 41 Noroeste 0 -- -- 79
2019-11-19 06:00:00 -1.2 21 Noroeste 37 Noroeste 0 -- -- 79
2019-11-19 05:00:00 -0.8 19 Noroeste 38 Noroeste 0 -- -- 75
2019-11-19 04:00:00 -0.4 26 Noroeste 40 Noroeste 0 -- -- 74
2019-11-19 03:00:00 0 30 Noroeste 41 Noroeste 0 -- -- 73
2019-11-19 02:00:00 0.4 27 Noroeste 40 Noroeste 0 -- -- 72
2019-11-19 01:00:00 1.3 28 Noroeste 39 Noroeste 0 -- -- 66
2019-11-19 00:00:00 2 25 Noroeste 37 Noroeste 0 -- -- 64
2019-11-18 23:00:00 3.1 24 Noroeste 31 Noroeste 0 -- -- 59
2019-11-18 22:00:00 4.1 15 Noroeste 21 Noroeste 0 -- -- 54
2019-11-18 21:00:00 4.8 9 Noroeste 28 Noroeste 0 -- -- 47
2019-11-18 20:00:00 5.3 9 Noroeste 28 Noroeste 0 -- -- 48
2019-11-18 19:00:00 6.1 9 Noroeste 23 Noroeste 0 -- -- 47
2019-11-18 18:00:00 6.5 14 Noroeste 21 Noroeste 0 -- -- 58
2019-11-18 17:00:00 8.6 5 Oeste 21 Oeste 0 -- -- 38
2019-11-18 16:00:00 10.1 9 Sudoeste 22 Sudoeste 0 -- -- 58
2019-11-18 15:00:00 11.1 9 Sur 18 Sudoeste 0 -- -- 54
2019-11-18 14:00:00 10.7 6 Sudeste 11 Este 0 -- -- 59
2019-11-18 13:00:00 9.9 5 Sudeste 12 Sudeste 0 -- -- 60
2019-11-18 12:00:00 9 6 Sudeste 9 Sur 0 -- -- 66
2019-11-18 11:00:00 6.1 3 Nordeste 21 Noroeste 0 -- -- 76
2019-11-18 10:00:00 2.2 12 Noroeste 34 Noroeste 0 -- -- 88
2019-11-18 09:00:00 1.5 13 Noroeste 33 Noroeste 0 -- -- 89
2019-11-18 08:00:00 1.4 23 Noroeste 37 Noroeste 0 -- -- 88
2019-11-18 07:00:00 1.9 22 Noroeste 32 Noroeste 0 -- -- 87
2019-11-18 06:00:00 2 21 Noroeste 33 Noroeste 0 -- -- 89
2019-11-18 05:00:00 2.2 18 Norte 31 Noroeste 0 -- -- 87
2019-11-18 04:00:00 2.5 22 Noroeste 29 Noroeste 0 -- -- 88
2019-11-18 03:00:00 2.9 16 Noroeste 26 Noroeste 0 -- -- 89
2019-11-18 02:00:00 2.8 16 Noroeste 26 Noroeste 0 -- -- 89
2019-11-18 01:00:00 3.1 13 Noroeste 25 Noroeste 0 -- -- 89
2019-11-18 00:00:00 3.6 17 Noroeste 26 Noroeste 0 -- -- 89
2019-11-17 23:00:00 3.9 14 Noroeste 23 Noroeste 0 -- -- 88
2019-11-17 22:00:00 4.6 13 Noroeste 17 Noroeste 0 -- -- 86
2019-11-17 21:00:00 5.1 4 Noroeste 10 Noroeste 0.2 -- -- 90
2019-11-17 20:00:00 5.6 0 Calma 4 Sur 0.2 -- -- 87
2019-11-17 19:00:00 6 2 Sur 13 Sudoeste 0 -- -- 82
2019-11-17 18:00:00 6.8 5 Sur 13 Sudoeste 0 -- -- 73
2019-11-17 17:00:00 7.2 4 Sudoeste 11 Sudoeste 0 -- -- 69
2019-11-17 16:00:00 7.6 6 Sur 14 Sudoeste 0 -- -- 66
2019-11-17 15:00:00 7.5 8 Sur 15 Sur 0 -- -- 66
2019-11-17 14:00:00 7.5 5 Sur 12 Sur 0 -- -- 63
2019-11-17 13:00:00 5.3 4 Sur 17 Sur 0 -- -- 69
2019-11-17 12:00:00 4.9 4 Sudeste 19 Noroeste 0 -- -- 75
2019-11-17 11:00:00 2.1 11 Noroeste 28 Norte 0 -- -- 75
2019-11-17 10:00:00 -0.2 16 Noroeste 28 Noroeste 0 -- -- 86
2019-11-17 09:00:00 -0.9 17 Noroeste 28 Noroeste 0 -- -- 86
2019-11-17 08:00:00 -1 19 Noroeste 35 Noroeste 0 -- -- 86
2019-11-17 07:00:00 -0.8 18 Noroeste 37 Noroeste 0 -- -- 86
2019-11-17 06:00:00 -0.9 19 Noroeste 31 Noroeste 0 -- -- 88
2019-11-17 05:00:00 -0.8 17 Noroeste 33 Noroeste 0 -- -- 88
2019-11-17 04:00:00 -0.6 21 Noroeste 31 Noroeste 0 -- -- 88
2019-11-17 03:00:00 -0.2 15 Noroeste 33 Noroeste 0 -- -- 86
2019-11-17 02:00:00 0 16 Noroeste 31 Noroeste 0 -- -- 87
2019-11-17 01:00:00 0.2 20 Noroeste 36 Norte 0 -- -- 89
2019-11-17 00:00:00 0.6 13 Noroeste 26 Noroeste 0 -- -- 89
2019-11-16 23:00:00 0.9 10 Noroeste 21 Noroeste 0 -- -- 89
2019-11-16 22:00:00 1.2 13 Noroeste 20 Noroeste 0 -- -- 88
2019-11-16 21:00:00 1.6 10 Noroeste 15 Noroeste 0 -- -- 88
2019-11-16 20:00:00 1.8 2 Sudoeste 9 Sudoeste 0 -- -- 85
2019-11-16 19:00:00 2.7 2 Este 15 Sudoeste 0 -- -- 80
2019-11-16 18:00:00 3.6 2 Sudoeste 14 Sudeste 0 -- -- 77
2019-11-16 17:00:00 4.7 8 Sudeste 17 Sur 0 -- -- 70
2019-11-16 16:00:00 6 10 Sur 25 Sudoeste 0 -- -- 63
2019-11-16 15:00:00 6 4 Este 12 Sudoeste 0 -- -- 66
2019-11-16 14:00:00 5.7 10 Sur 14 Sudoeste 0 -- -- 55
2019-11-16 13:00:00 4.9 6 Sur 21 Noroeste 0 -- -- 67
2019-11-16 12:00:00 3.3 11 Noroeste 28 Noroeste 0 -- -- 60
2019-11-16 11:00:00 1.3 18 Noroeste 39 Noroeste 0 -- -- 70
2019-11-16 10:00:00 -0.6 28 Noroeste 45 Noroeste 0 -- -- 79
2019-11-16 09:00:00 -1.8 27 Noroeste 40 Noroeste 0 -- -- 83
2019-11-16 08:00:00 -1.6 24 Noroeste 38 Noroeste 0 -- -- 84
2019-11-16 07:00:00 -1.2 23 Noroeste 35 Oeste 0 -- -- 81
2019-11-16 06:00:00 -0.7 21 Noroeste 35 Noroeste 0 -- -- 80
2019-11-16 05:00:00 -0.6 26 Noroeste 40 Noroeste 0 -- -- 82
2019-11-16 04:00:00 -0.1 22 Noroeste 37 Noroeste 0 -- -- 82
2019-11-16 03:00:00 0.3 22 Noroeste 35 Noroeste 0 -- -- 86
2019-11-16 02:00:00 0.7 20 Noroeste 36 Noroeste 0 -- -- 84
2019-11-16 01:00:00 1.2 22 Noroeste 40 Noroeste 0 -- -- 84
2019-11-16 00:00:00 1 9 Norte 24 Noroeste 0 -- -- 90
2019-11-15 23:00:00 1.8 13 Noroeste 29 Noroeste 0 -- -- 88
2019-11-15 22:00:00 2.3 13 Norte 21 Noroeste 0 -- -- 88
2019-11-15 21:00:00 2.3 0 Calma 13 Sudoeste 0 -- -- 92
2019-11-15 20:00:00 2.7 5 Oeste 18 Noroeste 0 -- -- 90
2019-11-15 19:00:00 2.7 5 Noroeste 12 Oeste 0.2 -- -- 91
2019-11-15 18:00:00 2.7 0 Calma 8 Sudoeste 0 -- -- 91
2019-11-15 17:00:00 2.8 8 Sudoeste 13 Sur 0 -- -- 90
2019-11-15 16:00:00 3.1 4 Sur 9 Sudoeste 0.4 -- -- 87
2019-11-15 15:00:00 3.8 8 Sur 14 Sudoeste 0 -- -- 80
2019-11-15 14:00:00 4 6 Sur 12 Sur 0 -- -- 75
2019-11-15 13:00:00 3.4 7 Sudoeste 14 Sudoeste 0 -- -- 76
2019-11-15 12:00:00 4.2 8 Sur 11 Sudoeste 0 -- -- 67
2019-11-15 11:00:00 2.1 6 Noroeste 24 Noroeste 0 -- -- 77
2019-11-15 10:00:00 0.3 17 Noroeste 32 Noroeste 0 -- -- 82
2019-11-15 09:00:00 -0.8 22 Noroeste 32 Noroeste 0 -- -- 82
2019-11-15 08:00:00 -0.7 22 Noroeste 33 Noroeste 0 -- -- 84
2019-11-15 07:00:00 -0.5 23 Norte 37 Noroeste 0 -- -- 85
2019-11-15 06:00:00 0 22 Noroeste 36 Noroeste 0 -- -- 81
2019-11-15 05:00:00 0.4 19 Noroeste 30 Noroeste 0 -- -- 81
2019-11-15 04:00:00 0.7 21 Noroeste 32 Noroeste 0 -- -- 82
2019-11-15 03:00:00 0.9 15 Noroeste 32 Noroeste 0 -- -- 82
2019-11-15 02:00:00 1.1 22 Noroeste 30 Noroeste 0 -- -- 82
2019-11-15 01:00:00 1.5 17 Noroeste 29 Noroeste 0 -- -- 84
2019-11-15 00:00:00 1.4 10 Noroeste 22 Noroeste 0 -- -- 90
2019-11-14 23:00:00 2.5 19 Norte 29 Noroeste 0 -- -- 84
2019-11-14 22:00:00 3.1 17 Noroeste 31 Noroeste 0 -- -- 88
2019-11-14 21:00:00 3.1 12 Noroeste 18 Noroeste 0 -- -- 91
2019-11-14 20:00:00 3.5 6 Noroeste 12 Noroeste 0 -- -- 88
2019-11-14 19:00:00 4.2 4 Oeste 11 Noroeste 0 -- -- 87
2019-11-14 18:00:00 4.9 6 Oeste 13 Noroeste 0 -- -- 83
2019-11-14 17:00:00 5.4 2 Noroeste 9 Noroeste 0 -- -- 85
2019-11-14 16:00:00 5.3 10 Noroeste 16 Noroeste 0 -- -- 86
2019-11-14 15:00:00 4.9 11 Noroeste 15 Noroeste 0.4 -- -- 87
2019-11-14 14:00:00 4.3 3 Este 18 Noroeste 0.8 -- -- 88
2019-11-14 13:00:00 3.9 13 Noroeste 26 Noroeste 0 -- -- 86
2019-11-14 12:00:00 3.5 14 Noroeste 39 Noroeste 0.2 -- -- 86
2019-11-14 11:00:00 2.3 21 Noroeste 34 Noroeste 1.8 -- -- 93
2019-11-14 10:00:00 2.1 18 Noroeste 26 Noroeste 3.8 -- -- 91
2019-11-14 09:00:00 3.4 19 Noroeste 26 Noroeste 2.2 -- -- 91
2019-11-14 08:00:00 3.8 5 Noroeste 15 Noroeste 2.8 -- -- 93
2019-11-14 07:00:00 3.3 10 Noroeste 24 Noroeste 2.6 -- -- 91
2019-11-14 06:00:00 3.3 15 Noroeste 26 Noroeste 1 -- -- 90
2019-11-14 05:00:00 3.2 17 Noroeste 33 Noroeste 0.6 -- -- 88
2019-11-14 04:00:00 3.2 22 Noroeste 32 Noroeste 0.2 -- -- 84
2019-11-14 03:00:00 4 12 Noroeste 29 Noroeste 0 -- -- 77
2019-11-14 02:00:00 3.8 14 Noroeste 34 Noroeste 0 -- -- 73
2019-11-14 01:00:00 3.9 23 Noroeste 36 Noroeste 0 -- -- 71
2019-11-14 00:00:00 4 18 Noroeste 33 Noroeste 0 -- -- 77
2019-11-13 23:00:00 4 21 Noroeste 30 Noroeste 0 -- -- 76
2019-11-13 22:00:00 4.6 21 Noroeste 28 Noroeste 0 -- -- 76
2019-11-13 21:00:00 5.8 17 Noroeste 30 Noroeste 0 -- -- 69
2019-11-13 20:00:00 7.1 16 Noroeste 27 Noroeste 0 -- -- 74
2019-11-13 19:00:00 8.9 4 Sudoeste 15 Sudoeste 0 -- -- 75
2019-11-13 18:00:00 10.2 3 Noroeste 16 Sur 0 -- -- 67
2019-11-13 17:00:00 11.2 5 Sudeste 18 Sur 0 -- -- 61
2019-11-13 16:00:00 12.9 13 Sur 22 Sudoeste 0 -- -- 53
2019-11-13 15:00:00 13.1 5 Sudeste 13 Sur 0 -- -- 52
2019-11-13 14:00:00 12.4 6 Sudeste 12 Sur 0 -- -- 54
2019-11-13 13:00:00 11.4 9 Sur 13 Sur 0 -- -- 54
2019-11-13 12:00:00 9.3 7 Sudeste 13 Sudeste 0 -- -- 64
2019-11-13 11:00:00 4.9 2 Sur 9 Sur 0 -- -- 83
2019-11-13 10:00:00 3.7 4 Noroeste 32 Noroeste 0 -- -- 81
2019-11-13 09:00:00 2.9 18 Noroeste 41 Noroeste 0 -- -- 82
2019-11-13 08:00:00 2.5 28 Noroeste 41 Noroeste 0 -- -- 83
2019-11-13 07:00:00 2.5 26 Noroeste 40 Noroeste 0 -- -- 82
2019-11-13 06:00:00 2.3 21 Noroeste 40 Noroeste 0 -- -- 84
2019-11-13 05:00:00 2.4 26 Noroeste 40 Noroeste 0 -- -- 83
2019-11-13 04:00:00 2.4 27 Noroeste 37 Noroeste 0 -- -- 84
2019-11-13 03:00:00 2.5 24 Noroeste 38 Noroeste 0 -- -- 85
2019-11-13 02:00:00 2.9 20 Noroeste 33 Noroeste 0 -- -- 84
2019-11-13 01:00:00 3.7 16 Noroeste 28 Noroeste 0 -- -- 81
2019-11-13 00:00:00 4.7 19 Noroeste 35 Noroeste 0 -- -- 76
2019-11-12 23:00:00 4.8 15 Noroeste 28 Noroeste 0 -- -- 78
2019-11-12 22:00:00 5.2 16 Noroeste 24 Noroeste 0 -- -- 79
2019-11-12 21:00:00 5.9 8 Noroeste 21 Noroeste 0 -- -- 76
2019-11-12 20:00:00 6.7 10 Noroeste 17 Noroeste 0 -- -- 73
2019-11-12 19:00:00 7.8 5 Sudoeste 10 Noroeste 0 -- -- 70
2019-11-12 18:00:00 9.5 0 Calma 7 Sudoeste 0 -- -- 62
2019-11-12 17:00:00 11.2 3 Oeste 25 Sudoeste 0 -- -- 51
2019-11-12 16:00:00 12.2 10 Sudeste 22 Sudoeste 0 -- -- 50
2019-11-12 15:00:00 13.2 7 Noroeste 14 Sudoeste 0 -- -- 42
2019-11-12 14:00:00 13.3 5 Sur 16 Sur 0 -- -- 39
2019-11-12 13:00:00 11.9 5 Sudeste 9 Sur 0 -- -- 45
2019-11-12 12:00:00 10.4 4 Sudeste 9 Sur 0 -- -- 50
2019-11-12 11:00:00 7.6 5 Sudeste 10 Sur 0 -- -- 62
2019-11-12 10:00:00 3.2 3 Sudeste 22 Noroeste 0 -- -- 76
2019-11-12 09:00:00 2.4 6 Norte 32 Noroeste 0 -- -- 74
2019-11-12 08:00:00 3.1 12 Noroeste 27 Noroeste 0 -- -- 71
2019-11-12 07:00:00 3.4 10 Noroeste 35 Noroeste 0 -- -- 69
2019-11-12 06:00:00 4.1 23 Noroeste 34 Noroeste 0 -- -- 67
2019-11-12 05:00:00 3.6 17 Noroeste 26 Noroeste 0 -- -- 72
2019-11-12 04:00:00 2.7 8 Norte 17 Noroeste 0 -- -- 77
2019-11-12 03:00:00 3.3 3 Noroeste 24 Noroeste 0 -- -- 72
2019-11-12 02:00:00 6 13 Noroeste 27 Noroeste 0 -- -- 55
2019-11-12 01:00:00 5.3 5 Norte 26 Noroeste 0 -- -- 64
2019-11-12 00:00:00 4.2 3 Norte 18 Noroeste 0 -- -- 70
2019-11-11 23:00:00 8.1 6 Norte 28 Noroeste 0 -- -- 47
2019-11-11 22:00:00 8.5 15 Noroeste 28 Noroeste 0 -- -- 45
2019-11-11 21:00:00 6.9 18 Noroeste 31 Noroeste 0 -- -- 61
2019-11-11 20:00:00 6.6 10 Noroeste 22 Noroeste 0 -- -- 64
2019-11-11 19:00:00 6.6 3 Este 12 Sudoeste 0 -- -- 62
2019-11-11 18:00:00 8.1 7 Sudoeste 13 Sudoeste 0 -- -- 55
2019-11-11 17:00:00 9.5 13 Sudoeste 17 Sudoeste 0 -- -- 46
2019-11-11 16:00:00 10.5 9 Sur 14 Sur 0 -- -- 36
2019-11-11 15:00:00 11.2 11 Sudoeste 16 Sur 0 -- -- 32
2019-11-11 14:00:00 11 8 Sur 12 Sur 0 -- -- 30
2019-11-11 13:00:00 10.2 8 Sur 15 Sur 0 -- -- 37
2019-11-11 12:00:00 9.5 3 Sudeste 8 Sudeste 0 -- -- 48
2019-11-11 11:00:00 6.4 4 Sudeste 27 Noroeste 0 -- -- 57
2019-11-11 10:00:00 3.5 14 Noroeste 29 Noroeste 0 -- -- 61
2019-11-11 09:00:00 2.6 21 Noroeste 36 Noroeste 0 -- -- 66
2019-11-11 08:00:00 2.1 14 Noroeste 34 Noroeste 0 -- -- 66
2019-11-11 07:00:00 1.9 20 Noroeste 35 Noroeste 0 -- -- 67
2019-11-11 06:00:00 1.8 17 Noroeste 32 Noroeste 0 -- -- 68
2019-11-11 05:00:00 1.9 13 Noroeste 31 Noroeste 0 -- -- 68
2019-11-11 04:00:00 2.1 14 Noroeste 28 Noroeste 0 -- -- 66
2019-11-11 03:00:00 2.8 18 Noroeste 29 Noroeste 0 -- -- 62
2019-11-11 02:00:00 2 3 Nordeste 10 Nordeste 0 -- -- 68
2019-11-11 01:00:00 2.3 3 Sudoeste 9 Nordeste 0 -- -- 66
2019-11-11 00:00:00 3.1 4 Sur 12 Sur 0 -- -- 60
2019-11-10 23:00:00 5.5 2 Noroeste 29 Noroeste 0 -- -- 49
2019-11-10 22:00:00 7.3 9 Noroeste 36 Noroeste 0 -- -- 40
2019-11-10 21:00:00 7.2 12 Oeste 36 Noroeste 0 -- -- 41
2019-11-10 20:00:00 7.7 9 Noroeste 33 Noroeste 0 -- -- 41
2019-11-10 19:00:00 7.7 4 Noroeste 28 Oeste 0 -- -- 44
2019-11-10 18:00:00 8.7 10 Noroeste 33 Noroeste 0 -- -- 39
2019-11-10 17:00:00 9.4 10 Noroeste 37 Noroeste 0 -- -- 38
2019-11-10 16:00:00 9.9 16 Noroeste 32 Noroeste 0 -- -- 36
2019-11-10 15:00:00 10.8 13 Oeste 27 Noroeste 0 -- -- 35
2019-11-10 14:00:00 10.9 13 Sur 20 Sur 0 -- -- 47
2019-11-10 13:00:00 10 5 Sudeste 9 Sudeste 0 -- -- 52
2019-11-10 12:00:00 8.6 6 Este 10 Este 0 -- -- 62
2019-11-10 11:00:00 6.6 5 Sudeste 10 Sudeste 0 -- -- 74
2019-11-10 10:00:00 2.6 3 Sudeste 9 Sudoeste 0 -- -- 93
2019-11-10 09:00:00 1.4 0 Calma 8 Sudoeste 0 -- -- 91
2019-11-10 08:00:00 1.8 4 Norte 12 Noroeste 0 -- -- 89
2019-11-10 07:00:00 2.3 3 Sur 11 Noroeste 0 -- -- 90
2019-11-10 06:00:00 2.6 2 Este 8 Sur 0 -- -- 92
2019-11-10 05:00:00 3.6 3 Sudoeste 9 Sudoeste 0 -- -- 91
2019-11-10 04:00:00 4.4 5 Sudoeste 12 Sur 0 -- -- 89
2019-11-10 03:00:00 5.4 8 Sudoeste 24 Noroeste 0 -- -- 85
2019-11-10 02:00:00 6.2 5 Nordeste 25 Noroeste 0 -- -- 79
2019-11-10 01:00:00 6.1 12 Noroeste 19 Noroeste 0 -- -- 85
2019-11-10 00:00:00 5.9 0 Calma 18 Noroeste 0 -- -- 84
2019-11-09 23:00:00 6.3 14 Noroeste 22 Noroeste 0 -- -- 83
2019-11-09 22:00:00 6.6 2 Oeste 12 Sur 0 -- -- 79
2019-11-09 21:00:00 7.2 7 Sudoeste 14 Sudoeste 0 -- -- 77
2019-11-09 20:00:00 7.5 5 Sudeste 13 Sur 0 -- -- 75
2019-11-09 19:00:00 7.7 4 Sudeste 16 Sudeste 0 -- -- 73
2019-11-09 18:00:00 8.2 6 Sudeste 13 Sudeste 0 -- -- 70
2019-11-09 17:00:00 9.2 6 Sur 18 Sudoeste 0 -- -- 65
2019-11-09 16:00:00 9.8 8 Sudeste 15 Nordeste 0 -- -- 62
2019-11-09 15:00:00 11 5 Sudeste 16 Sur 0 -- -- 59
2019-11-09 14:00:00 10.2 9 Sur 16 Sur 0 -- -- 58
2019-11-09 13:00:00 10 6 Sur 12 Sudoeste 0 -- -- 59
2019-11-09 12:00:00 8.9 5 Sudeste 13 Sudeste 0 -- -- 66
2019-11-09 11:00:00 6.6 5 Sudeste 9 Noroeste 0 -- -- 82
2019-11-09 10:00:00 2.1 3 Este 6 Noroeste 0 -- -- 97
2019-11-09 09:00:00 -0.1 2 Norte 12 Sudoeste 0 -- -- 95
2019-11-09 08:00:00 -0.1 0 Calma 7 Oeste 0 -- -- 95
2019-11-09 07:00:00 0.1 3 Sudoeste 11 Noroeste 0 -- -- 95
2019-11-09 06:00:00 -0.2 3 Sudeste 6 Sudoeste 0 -- -- 93
2019-11-09 05:00:00 0.2 2 Sudoeste 10 Sur 0 -- -- 93
2019-11-09 04:00:00 0.6 4 Sur 14 Sur 0 -- -- 92
2019-11-09 03:00:00 0.8 3 Este 14 Sur 0 -- -- 91
2019-11-09 02:00:00 1.5 3 Norte 12 Sudoeste 0 -- -- 89
2019-11-09 01:00:00 2.3 10 Sudoeste 21 Sudoeste 0 -- -- 84
2019-11-09 00:00:00 4.1 9 Oeste 24 Norte 0 -- -- 79
2019-11-08 23:00:00 4.1 10 Oeste 31 Noroeste 0 -- -- 80
2019-11-08 22:00:00 4.4 9 Oeste 30 Noroeste 0 -- -- 78
2019-11-08 21:00:00 5.2 11 Noroeste 21 Noroeste 0 -- -- 74
2019-11-08 20:00:00 5.4 9 Noroeste 18 Noroeste 0 -- -- 73
2019-11-08 19:00:00 5.8 3 Noroeste 19 Noroeste 0 -- -- 70
2019-11-08 18:00:00 6.6 8 Noroeste 19 Noroeste 0 -- -- 66
2019-11-08 17:00:00 6.7 7 Noroeste 22 Noroeste 0 -- -- 66
2019-11-08 16:00:00 7.9 5 Oeste 23 Sur 0 -- -- 62
2019-11-08 15:00:00 6.3 9 Sur 30 Sur 0 -- -- 74
2019-11-08 14:00:00 7.8 6 Sur 16 Este 0 -- -- 64
2019-11-08 13:00:00 7.1 6 Sur 14 Norte 0 -- -- 67
2019-11-08 12:00:00 6.5 5 Sudeste 14 Sur 0 -- -- 71
2019-11-08 11:00:00 3.9 2 Sur 12 Sudoeste 0 -- -- 91
2019-11-08 10:00:00 2.9 5 Sudoeste 9 Sudoeste 0 -- -- 91
2019-11-08 09:00:00 2.5 3 Norte 13 Norte 0 -- -- 92
2019-11-08 08:00:00 1.4 2 Sudeste 9 Noroeste 0 -- -- 93
2019-11-08 07:00:00 1.3 0 Calma 6 Nordeste 0 -- -- 92
2019-11-08 06:00:00 1.8 5 Oeste 15 Noroeste 0 -- -- 90
2019-11-08 05:00:00 2 4 Sudoeste 24 Noroeste 0 -- -- 89
2019-11-08 04:00:00 2.4 8 Noroeste 15 Noroeste 0 -- -- 90
2019-11-08 03:00:00 2.4 0 Calma 15 Noroeste 0 -- -- 89
2019-11-08 02:00:00 2.8 0 Calma 5 Sur 0 -- -- 87
2019-11-08 01:00:00 3.7 2 Sudoeste 9 Sudoeste 0 -- -- 84
2019-11-08 00:00:00 3.7 0 Calma 15 Sudoeste 0 -- -- 84
2019-11-07 23:00:00 3.8 3 Sudeste 6 Este 0 -- -- 85
2019-11-07 22:00:00 4.5 2 Sur 10 Oeste 0 -- -- 83
2019-11-07 21:00:00 4.6 3 Nordeste 9 Noroeste 0 -- -- 83
2019-11-07 20:00:00 5.5 6 Sudoeste 12 Sudoeste 0 -- -- 78
2019-11-07 19:00:00 6.7 3 Oeste 17 Sur 0 -- -- 73
2019-11-07 18:00:00 7.9 7 Sur 29 Sur 0 -- -- 68
2019-11-07 17:00:00 8.6 7 Sudeste 17 Este 0 -- -- 76
2019-11-07 16:00:00 8.2 0 Calma 15 Nordeste 0 -- -- 84
2019-11-07 15:00:00 7.8 9 Sudeste 24 Sur 0.6 -- -- 87
2019-11-07 14:00:00 8.1 6 Sur 19 Sur 0.2 -- -- 90
2019-11-07 13:00:00 8.2 9 Sur 12 Sudoeste 0 -- -- 91
2019-11-07 12:00:00 6.9 10 Sur 13 Sur 0.2 -- -- 91
2019-11-07 11:00:00 6.6 2 Sudeste 13 Noroeste 0.2 -- -- 89
2019-11-07 10:00:00 6.2 7 Noroeste 27 Noroeste 0 -- -- 83
2019-11-07 09:00:00 5.5 19 Noroeste 29 Noroeste 0 -- -- 86
2019-11-07 08:00:00 4.8 18 Noroeste 28 Noroeste 0 -- -- 87
2019-11-07 07:00:00 4.8 19 Noroeste 33 Noroeste 0 -- -- 85
2019-11-07 06:00:00 4.7 23 Noroeste 33 Noroeste 0 -- -- 86
2019-11-07 05:00:00 4.8 19 Noroeste 30 Noroeste 0 -- -- 88
2019-11-07 04:00:00 4.8 18 Noroeste 33 Noroeste 0 -- -- 87
2019-11-07 03:00:00 4.7 22 Noroeste 31 Noroeste 0 -- -- 86
2019-11-07 02:00:00 4.6 19 Noroeste 32 Noroeste 0 -- -- 88
2019-11-07 01:00:00 4.7 18 Noroeste 31 Noroeste 0 -- -- 88
2019-11-07 00:00:00 5.2 20 Noroeste 30 Noroeste 0 -- -- 87
2019-11-06 23:00:00 5.7 18 Noroeste 29 Noroeste 0 -- -- 86
2019-11-06 22:00:00 6.6 18 Noroeste 29 Noroeste 0 -- -- 84
2019-11-06 21:00:00 7.3 14 Noroeste 28 Noroeste 0 -- -- 80
2019-11-06 20:00:00 8.2 16 Noroeste 24 Noroeste 0 -- -- 79
2019-11-06 19:00:00 9.3 7 Noroeste 13 Noroeste 0 -- -- 76
2019-11-06 18:00:00 10.6 2 Este 8 Este 0 -- -- 70
2019-11-06 17:00:00 12.2 4 Sudoeste 14 Sur 0 -- -- 61
2019-11-06 16:00:00 13.3 4 Este 12 Sur 0 -- -- 60
2019-11-06 15:00:00 12.5 4 Sur 10 Sur 0 -- -- 60
2019-11-06 14:00:00 12.5 14 Sur 25 Sudoeste 0 -- -- 60
2019-11-06 13:00:00 12.2 8 Sudeste 13 Este 0 -- -- 62
2019-11-06 12:00:00 10.1 4 Este 9 Sudeste 0 -- -- 70
2019-11-06 11:00:00 5.3 3 Nordeste 18 Noroeste 0 -- -- 91
2019-11-06 10:00:00 4 9 Noroeste 26 Noroeste 0 -- -- 93
2019-11-06 09:00:00 2.8 13 Noroeste 24 Noroeste 0 -- -- 94
2019-11-06 08:00:00 2.6 5 Norte 22 Noroeste 0 -- -- 93
2019-11-06 07:00:00 2.6 11 Noroeste 22 Noroeste 0 -- -- 93
2019-11-06 06:00:00 2.7 13 Noroeste 31 Noroeste 0 -- -- 93
2019-11-06 05:00:00 2.8 14 Noroeste 22 Noroeste 0 -- -- 92
2019-11-06 04:00:00 3 12 Noroeste 33 Norte 0 -- -- 91
2019-11-06 03:00:00 3.2 23 Noroeste 33 Noroeste 0 -- -- 91
2019-11-06 02:00:00 3.7 16 Norte 28 Noroeste 0 -- -- 90
2019-11-06 01:00:00 4.1 6 Noroeste 17 Noroeste 0 -- -- 89
2019-11-06 00:00:00 4.5 6 Noroeste 19 Noroeste 0 -- -- 88